ASA1341 LROP-UAIT
Flight info
| Callsign | ASA1341 |
|---|---|
| Flight time | N/A |
| Altitude | 35000 |
| Route | IDARU DCT NEDSI T343 UDROS UM859 KARDE UN644 ROLIN N644 LAGAS M747 BARAD/N0464F370 M747 SUBUT T916 BALUN/K0845F370 T916 KUNAS Z627 OFFES N147 KARIM KARIM1A |
| Aircraft | B738/M-SDE2E3FGHIRWXY/LB1 |
Departure
| Time | N/A |
|---|---|
| Airport | Bucharest Henri Coandă International Airport (LROP) |
Arrival
| Time | 2026-05-05 22:40 |
|---|---|
| Airport | Hazrat Sultan International Airport (UAIT) |
| Time | Latitude | Longitude | Altitude | Speed | Heading |
|---|---|---|---|---|---|
| 2026-05-05 22:18 | 42.80353 | 65.84180 | 35004 ft | 483 kts | 71° |
| 2026-05-05 22:18 | 42.81319 | 65.88560 | 35003 ft | 483 kts | 70° |
| 2026-05-05 22:19 | 42.83275 | 65.97324 | 34992 ft | 483 kts | 70° |
| 2026-05-05 22:19 | 42.85144 | 66.06133 | 34989 ft | 483 kts | 71° |
| 2026-05-05 22:20 | 42.86957 | 66.14908 | 34992 ft | 483 kts | 71° |
| 2026-05-05 22:20 | 42.88740 | 66.23746 | 34992 ft | 483 kts | 71° |
| 2026-05-05 22:21 | 42.90517 | 66.32584 | 34996 ft | 483 kts | 71° |
| 2026-05-05 22:21 | 42.91409 | 66.37019 | 34628 ft | 488 kts | 72° |
| 2026-05-05 22:21 | 42.92308 | 66.41493 | 34022 ft | 488 kts | 72° |
| 2026-05-05 22:21 | 42.93201 | 66.45959 | 33272 ft | 488 kts | 72° |
| 2026-05-05 22:22 | 42.94093 | 66.50419 | 32536 ft | 487 kts | 72° |
| 2026-05-05 22:22 | 42.94983 | 66.54884 | 31790 ft | 487 kts | 72° |
| 2026-05-05 22:22 | 42.95870 | 66.59340 | 31041 ft | 487 kts | 72° |
| 2026-05-05 22:22 | 42.96766 | 66.63805 | 30272 ft | 487 kts | 72° |
| 2026-05-05 22:23 | 42.97660 | 66.68207 | 29500 ft | 486 kts | 72° |
| 2026-05-05 22:23 | 42.98557 | 66.72628 | 28918 ft | 479 kts | 72° |
| 2026-05-05 22:23 | 42.99436 | 66.76980 | 28339 ft | 473 kts | 72° |
| 2026-05-05 22:23 | 43.00299 | 66.81286 | 27755 ft | 467 kts | 72° |
| 2026-05-05 22:24 | 43.01148 | 66.85560 | 27181 ft | 462 kts | 73° |
| 2026-05-05 22:24 | 43.01980 | 66.89772 | 26620 ft | 457 kts | 73° |
| 2026-05-05 22:24 | 43.02805 | 66.93951 | 26067 ft | 453 kts | 73° |
| 2026-05-05 22:24 | 43.03618 | 66.98078 | 25518 ft | 448 kts | 73° |
| 2026-05-05 22:25 | 43.04424 | 67.02179 | 24980 ft | 444 kts | 73° |
| 2026-05-05 22:25 | 43.05213 | 67.06191 | 24450 ft | 441 kts | 73° |
| 2026-05-05 22:25 | 43.06006 | 67.10234 | 23888 ft | 438 kts | 73° |
| 2026-05-05 22:25 | 43.06792 | 67.14248 | 23289 ft | 436 kts | 73° |
| 2026-05-05 22:26 | 43.07570 | 67.18232 | 22703 ft | 432 kts | 73° |
| 2026-05-05 22:26 | 43.08342 | 67.22194 | 22132 ft | 428 kts | 73° |
| 2026-05-05 22:26 | 43.09103 | 67.26106 | 21593 ft | 423 kts | 73° |
| 2026-05-05 22:26 | 43.09856 | 67.29983 | 21061 ft | 419 kts | 73° |
| 2026-05-05 22:27 | 43.10599 | 67.33818 | 20546 ft | 415 kts | 73° |
| 2026-05-05 22:27 | 43.11335 | 67.37620 | 20021 ft | 411 kts | 73° |
| 2026-05-05 22:27 | 43.12057 | 67.41356 | 19518 ft | 408 kts | 73° |
| 2026-05-05 22:27 | 43.12778 | 67.45099 | 19006 ft | 405 kts | 73° |
| 2026-05-05 22:28 | 43.13491 | 67.48818 | 18505 ft | 402 kts | 73° |
| 2026-05-05 22:28 | 43.14198 | 67.52516 | 17929 ft | 400 kts | 74° |
| 2026-05-05 22:28 | 43.14899 | 67.56189 | 17448 ft | 395 kts | 74° |
| 2026-05-05 22:28 | 43.15582 | 67.59775 | 16919 ft | 392 kts | 74° |
| 2026-05-05 22:29 | 43.16262 | 67.63351 | 16533 ft | 385 kts | 74° |
| 2026-05-05 22:29 | 43.16937 | 67.66903 | 15848 ft | 382 kts | 75° |
| 2026-05-05 22:29 | 43.17598 | 67.70391 | 15206 ft | 374 kts | 75° |
| 2026-05-05 22:29 | 43.18247 | 67.73815 | 14542 ft | 368 kts | 75° |
| 2026-05-05 22:30 | 43.18882 | 67.77181 | 13935 ft | 363 kts | 75° |
| 2026-05-05 22:30 | 43.19505 | 67.80513 | 13312 ft | 359 kts | 76° |
| 2026-05-05 22:30 | 43.20075 | 67.83822 | 12670 ft | 353 kts | 77° |
| 2026-05-05 22:30 | 43.20612 | 67.87064 | 12230 ft | 341 kts | 77° |
| 2026-05-05 22:31 | 43.21121 | 67.90164 | 11975 ft | 326 kts | 77° |
| 2026-05-05 22:31 | 43.21609 | 67.93131 | 11656 ft | 312 kts | 77° |
| 2026-05-05 22:31 | 43.22072 | 67.95941 | 11382 ft | 301 kts | 76° |
| 2026-05-05 22:31 | 43.22531 | 67.98714 | 10940 ft | 296 kts | 76° |
| 2026-05-05 22:32 | 43.22983 | 68.01445 | 10438 ft | 289 kts | 76° |
| 2026-05-05 22:32 | 43.23418 | 68.04073 | 9939 ft | 277 kts | 76° |
| 2026-05-05 22:32 | 43.23838 | 68.06614 | 9243 ft | 271 kts | 76° |
| 2026-05-05 22:32 | 43.24254 | 68.09129 | 8522 ft | 269 kts | 76° |
| 2026-05-05 22:33 | 43.24666 | 68.11623 | 7834 ft | 266 kts | 77° |
| 2026-05-05 22:33 | 43.25074 | 68.14094 | 7154 ft | 264 kts | 77° |
| 2026-05-05 22:33 | 43.25477 | 68.16535 | 6498 ft | 261 kts | 77° |
| 2026-05-05 22:33 | 43.25876 | 68.18965 | 5784 ft | 263 kts | 77° |
| 2026-05-05 22:34 | 43.26276 | 68.21401 | 5237 ft | 258 kts | 77° |
| 2026-05-05 22:34 | 43.26649 | 68.23676 | 5092 ft | 239 kts | 78° |
| 2026-05-05 22:34 | 43.26880 | 68.25836 | 4954 ft | 221 kts | 97° |
| 2026-05-05 22:34 | 43.26343 | 68.27740 | 4928 ft | 220 kts | 127° |
| 2026-05-05 22:35 | 43.25224 | 68.29226 | 4859 ft | 226 kts | 144° |
| 2026-05-05 22:35 | 43.23953 | 68.30444 | 4626 ft | 220 kts | 146° |
| 2026-05-05 22:35 | 43.22683 | 68.31483 | 4403 ft | 206 kts | 162° |
| 2026-05-05 22:35 | 43.21390 | 68.32139 | 4173 ft | 195 kts | 141° |
| 2026-05-05 22:36 | 43.20784 | 68.33704 | 4023 ft | 193 kts | 90° |
| 2026-05-05 22:36 | 43.21247 | 68.35403 | 3927 ft | 197 kts | 50° |
| 2026-05-05 22:36 | 43.22119 | 68.36890 | 3668 ft | 201 kts | 54° |
| 2026-05-05 22:36 | 43.22904 | 68.38458 | 3411 ft | 199 kts | 56° |
| 2026-05-05 22:37 | 43.23664 | 68.40003 | 3148 ft | 190 kts | 56° |
| 2026-05-05 22:37 | 43.24382 | 68.41457 | 2900 ft | 178 kts | 56° |
| 2026-05-05 22:37 | 43.24833 | 68.42370 | 2755 ft | 170 kts | 56° |
| 2026-05-05 22:37 | 43.25471 | 68.43658 | 2585 ft | 159 kts | 56° |
| 2026-05-05 22:38 | 43.26087 | 68.44903 | 2358 ft | 155 kts | 56° |
| 2026-05-05 22:38 | 43.26693 | 68.46126 | 2149 ft | 154 kts | 56° |
| 2026-05-05 22:38 | 43.27288 | 68.47328 | 1955 ft | 154 kts | 56° |
| 2026-05-05 22:38 | 43.27887 | 68.48538 | 1759 ft | 152 kts | 56° |
| 2026-05-05 22:39 | 43.28476 | 68.49725 | 1563 ft | 148 kts | 56° |
| 2026-05-05 22:39 | 43.29052 | 68.50894 | 1371 ft | 147 kts | 56° |
| 2026-05-05 22:39 | 43.29632 | 68.52059 | 1186 ft | 148 kts | 56° |
| 2026-05-05 22:39 | 43.30211 | 68.53228 | 1035 ft | 147 kts | 56° |
| 2026-05-05 22:40 | 43.30756 | 68.54323 | 997 ft | 123 kts | 56° |
| 2026-05-05 22:40 | 43.31030 | 68.54873 | 996 ft | 30 kts | 55° |
| 2026-05-05 22:40 | 43.31106 | 68.55004 | 997 ft | 13 kts | 28° |
| 2026-05-05 22:40 | 43.31190 | 68.54969 | 995 ft | 14 kts | 326° |
| 2026-05-05 22:41 | 43.31269 | 68.54895 | 995 ft | 13 kts | 326° |
| 2026-05-05 22:41 | 43.31338 | 68.54831 | 993 ft | 11 kts | 326° |
| 2026-05-05 22:41 | 43.31406 | 68.54817 | 996 ft | 11 kts | 38° |
| 2026-05-05 22:41 | 43.31456 | 68.54863 | 994 ft | 8 kts | 348° |
| 2026-05-05 22:42 | 43.31497 | 68.54820 | 995 ft | 7 kts | 324° |
| 2026-05-05 22:42 | 43.31526 | 68.54792 | 997 ft | 0 kts | 325° |